Latest Weather Observations for Adelaide (West Terrace / ngayirdapira)

IDS60901

Issued at 5:11 am CDT Tuesday 15 October 2019 (issued every 10 minutes, with the page automatically refreshed every 10 minutes)

About weather observations | Map of Adelaide area stations | Latest observations for Adelaide area | Other Formats
Station Details ID: 023000 Name: ADELAIDE (WEST TERRACE / NGAYIRDAPIRA) Lat: -34.93 Lon: 138.58 Height: 29.32 m
Data from the previous 72 hours. | See also: Recent months at Adelaide (West Terrace / ngayirdapira)
Date/Time
CDT
Temp
°C
App
Temp
°C
Dew
Point
°C
Rel
Hum
%
Delta-T
°C
Wind Press
QNH
hPa
Press
MSL
hPa
Rain since
9am
mm
Dir  Spd
km/h
Gust
km/h
Spd
kts
Gust
kts
15/05:00am 8.9 8.3 7.5 91 0.7 CALM 0 0 0 0 1015.7 1015.6 0.0
15/04:30am 9.5 7.9 8.1 91 0.7 NNE 6 9 3 5 1015.9 1015.8 0.0
15/04:00am 9.5 9.1 8.1 91 0.7 CALM 0 0 0 0 1015.7 1015.6 0.0
15/03:30am 9.0 8.4 7.6 91 0.7 CALM 0 0 0 0 1015.5 1015.4 0.0
15/03:00am 9.0 8.4 7.3 89 0.8 CALM 0 6 0 3 1015.1 1015.0 0.0
15/02:30am 9.9 8.3 7.8 87 1.0 ESE 6 7 3 4 1015.1 1015.0 0.0
15/02:00am 9.6 7.8 8.0 90 0.8 SSE 7 9 4 5 1015.5 1015.4 0.0
15/01:30am 9.8 9.4 8.1 89 0.8 CALM 0 6 0 3 1016.1 1016.0 0.0
15/01:00am 10.3 8.7 8.2 87 1.0 S 6 7 3 4 1016.5 1016.5 0.0
15/12:30am 11.1 9.6 8.5 84 1.3 SE 6 7 3 4 1016.7 1016.7 0.0
15/12:00am 11.5 10.0 8.5 82 1.5 SSE 6 9 3 5 1017.0 1017.0 0.0
 
Date/Time
CDT
Temp
°C
App
Temp
°C
Dew
Point
°C
Rel
Hum
%
Delta-T
°C
Wind Press
QNH
hPa
Press
MSL
hPa
Rain since
9am
mm
Dir  Spd
km/h
Gust
km/h
Spd
kts
Gust
kts
14/11:30pm 11.9 10.3 8.9 82 1.5 SE 7 11 4 6 1017.0 1017.0 0.0
14/11:00pm 12.0 10.6 8.8 81 1.6 SSE 6 9 3 5 1017.4 1017.4 0.0
14/10:30pm 12.5 10.7 9.3 81 1.6 S 9 13 5 7 1017.3 1017.3 0.0
14/10:00pm 13.0 11.3 9.8 81 1.6 SSE 9 15 5 8 1017.2 1017.2 0.0
14/09:30pm 13.4 12.3 10.6 83 1.5 SSW 7 11 4 6 1017.2 1017.2 0.0
14/09:00pm 13.5 12.0 10.5 82 1.6 SSW 9 13 5 7 1017.0 1017.0 0.0
14/08:30pm 13.9 12.0 10.5 80 1.8 SSW 11 17 6 9 1016.5 1016.5 0.0
14/08:00pm 14.2 12.4 10.8 80 1.8 SSW 11 20 6 11 1016.1 1016.0 0.0
14/07:30pm 14.9 12.2 10.3 74 2.4 SW 15 22 8 12 1015.8 1015.7 0.0
14/07:00pm 15.7 13.4 10.5 71 2.7 SW 13 19 7 10 1015.6 1015.5 0.0
14/06:30pm 15.9 13.2 10.4 70 2.9 SW 15 24 8 13 1015.5 1015.4 0.0
14/06:00pm 16.6 13.5 10.2 66 3.4 SW 17 26 9 14 1015.5 1015.4 0.0
14/05:30pm 16.9 13.7 10.1 64 3.6 SW 17 22 9 12 1015.1 1015.0 0.0
14/05:00pm 16.9 13.7 9.8 63 3.7 WSW 17 26 9 14 1015.3 1015.2 0.0
14/04:30pm 18.0 15.6 10.1 60 4.2 SW 13 19 7 10 1015.3 1015.2 0.0
14/04:00pm 18.0 15.6 9.9 59 4.3 W 13 22 7 12 1015.2 1015.1 0.0
14/03:30pm 17.9 15.8 8.2 53 5.0 SSW 9 19 5 10 1015.2 1015.1 0.0
14/03:00pm 18.4 15.8 9.2 55 4.8 SW 13 20 7 11 1015.5 1015.4 0.0
14/02:30pm 16.5 13.3 8.5 59 4.1 SSW 15 24 8 13 1015.6 1015.5 0.0
14/02:00pm 17.1 14.5 9.5 61 4.0 SW 13 24 7 13 1016.1 1016.0 0.0
14/01:30pm 17.2 13.4 9.1 59 4.2 WSW 19 26 10 14 1016.4 1016.4 0.0
14/01:00pm 16.2 12.9 9.4 64 3.5 WSW 17 26 9 14 1016.4 1016.4 0.0
14/12:30pm 17.1 14.4 10.5 65 3.5 WSW 15 24 8 13 1016.6 1016.6 0.0
14/12:00pm 16.0 12.7 9.7 66 3.3 WSW 17 26 9 14 1016.7 1016.7 0.0
14/11:30am 16.4 13.5 9.6 64 3.5 SW 15 22 8 12 1016.7 1016.7 0.0
14/11:00am 16.5 14.2 10.6 68 3.1 WSW 13 20 7 11 1016.4 1016.4 0.0
14/10:30am 15.3 13.0 10.3 72 2.6 SW 13 20 7 11 1016.3 1016.3 0.0
14/10:00am 15.2 13.2 10.2 72 2.6 WSW 11 19 6 10 1016.1 1016.0 0.0
14/09:30am 15.3 13.4 10.5 73 2.5 WSW 11 17 6 9 1015.8 1015.7 0.0
14/09:00am 14.5 12.4 9.7 73 2.5 SW 11 19 6 10 1015.8 1015.7 3.0
14/08:30am 14.8 12.9 10.4 75 2.3 SW 11 19 6 10 1015.7 1015.6 3.0
14/08:00am 13.9 11.9 10.1 78 2.0 SSW 11 20 6 11 1015.3 1015.2 3.0
14/07:30am 13.6 12.7 10.8 83 1.5 S 6 11 3 6 1014.8 1014.7 3.0
14/07:11am 13.5 12.1 11.0 85 1.3 SW 9 15 5 8 1014.9 1014.8 3.0
14/07:00am 13.6 12.3 11.3 86 1.2 SW 9 13 5 7 1015.0 1014.9 3.0
14/06:30am 13.7 12.9 11.6 87 1.1 WSW 7 11 4 6 1014.5 1014.4 3.0
14/06:06am 13.7 12.4 11.4 86 1.2 SW 9 15 5 8 1014.3 1014.2 3.0
14/06:00am 13.7 12.5 11.6 87 1.1 WSW 9 15 5 8 1014.3 1014.2 3.0
14/05:39am 13.6 12.8 11.7 88 1.0 SW 7 9 4 5 1014.1 1014.0 3.0
14/05:30am 13.6 12.8 11.7 88 1.0 SW 7 11 4 6 1013.9 1013.8 3.0
14/05:05am 13.6 13.0 11.7 88 1.0 WSW 6 11 3 6 1013.8 1013.7 3.0
14/05:00am 13.6 13.0 11.7 88 1.0 WSW 6 11 3 6 1013.7 1013.6 3.0
14/04:37am 13.5 12.7 11.6 88 1.0 SW 7 13 4 7 1013.6 1013.5 3.0
14/04:30am 13.6 12.7 11.5 87 1.1 SW 7 13 4 7 1013.6 1013.5 3.0
14/04:00am 14.1 13.0 11.8 86 1.2 WSW 9 13 5 7 1013.9 1013.8 3.0
14/03:57am 14.0 12.8 11.7 86 1.2 WSW 9 13 5 7 1013.9 1013.8 3.0
14/03:30am 13.6 13.0 11.7 88 1.0 WSW 6 11 3 6 1013.9 1013.8 3.0
14/03:00am 13.1 13.1 11.2 88 1.0 WSW 2 6 1 3 1014.0 1013.9 3.0
14/02:30am 13.4 13.4 11.1 86 1.2 W 2 7 1 4 1014.2 1014.1 3.0
14/02:00am 13.5 12.7 10.9 84 1.4 SW 6 9 3 5 1014.3 1014.2 3.0
14/01:30am 14.1 13.1 11.1 82 1.6 WSW 7 11 4 6 1014.5 1014.4 3.0
14/01:00am 14.6 13.4 11.6 82 1.6 W 9 13 5 7 1014.6 1014.5 3.0
14/12:30am 14.7 13.2 12.0 84 1.5 W 11 15 6 8 1014.6 1014.5 3.0
14/12:00am 15.1 14.1 12.4 84 1.5 WSW 9 15 5 8 1014.5 1014.4 3.0
 
Date/Time
CDT
Temp
°C
App
Temp
°C
Dew
Point
°C
Rel
Hum
%
Delta-T
°C
Wind Press
QNH
hPa
Press
MSL
hPa
Rain since
9am
mm
Dir  Spd
km/h
Gust
km/h
Spd
kts
Gust
kts
13/11:30pm 15.2 14.3 12.7 85 1.4 WSW 9 17 5 9 1014.5 1014.4 3.0
13/11:00pm 15.6 14.5 13.1 85 1.4 WSW 11 17 6 9 1014.4 1014.3 3.0
13/10:30pm 16.5 16.4 13.8 84 1.5 NW 7 13 4 7 1014.1 1014.0 3.0
13/10:00pm 16.6 16.4 13.7 83 1.6 NW 7 11 4 6 1014.0 1013.9 3.0
13/09:30pm 16.6 16.6 14.1 85 1.4 NNW 7 11 4 6 1013.8 1013.7 3.0
13/09:00pm 16.6 16.8 14.1 85 1.4 N 6 9 3 5 1013.4 1013.3 3.0
13/08:30pm 16.5 16.4 13.8 84 1.5 NE 7 11 4 6 1012.9 1012.8 3.0
13/08:00pm 16.3 16.4 14.0 86 1.3 NE 6 7 3 4 1012.7 1012.6 3.0
13/07:30pm 16.0 16.0 13.5 85 1.4 ENE 6 9 3 5 1012.4 1012.3 3.0
13/07:00pm 15.9 16.4 13.9 88 1.1 NE 4 11 2 6 1012.5 1012.4 3.0
13/06:30pm 16.1 16.1 14.1 88 1.1 SW 7 11 4 6 1012.1 1012.0 3.0
13/06:00pm 16.2 16.0 13.7 85 1.4 NE 7 13 4 7 1011.5 1011.4 2.6
13/05:57pm 16.2 16.1 13.9 86 1.3 NE 7 11 4 6 1011.6 1011.5 2.6
13/05:33pm 16.5 15.4 13.0 80 2.0 NNW 11 17 6 9 1012.5 1012.4 1.4
13/05:30pm 16.9 15.8 13.2 79 2.1 NW 11 17 6 9 1012.9 1012.8 0.2
13/05:00pm 17.5 16.9 12.4 72 2.8 SW 7 17 4 9 1012.0 1011.9 0.2
13/04:30pm 17.9 16.6 12.6 71 3.0 SW 11 20 6 11 1012.1 1012.0 0.2
13/04:00pm 17.9 16.3 12.8 72 2.9 SW 13 20 7 11 1012.6 1012.5 0.2
13/03:30pm 18.2 16.5 13.7 75 2.6 SSW 15 24 8 13 1012.7 1012.6 0.0
13/03:00pm 17.9 15.9 14.0 78 2.2 SSW 17 28 9 15 1012.6 1012.5 0.0
13/02:30pm 18.2 15.6 13.3 73 2.8 SW 19 35 10 19 1013.3 1013.2 0.0
13/02:00pm 19.8 17.5 11.8 60 4.4 SW 15 24 8 13 1012.7 1012.6 0.0
13/01:30pm 20.6 18.5 11.2 55 5.2 WNW 13 20 7 11 1012.5 1012.4 0.0
13/01:00pm 21.0 18.0 10.8 52 5.6 NW 17 26 9 14 1012.6 1012.5 0.0
13/12:30pm 21.6 18.6 10.7 50 6.0 NW 17 28 9 15 1012.7 1012.6 0.0
13/12:00pm 21.4 17.5 8.7 44 6.7 WNW 19 32 10 17 1013.1 1013.0 0.0
13/11:30am 23.3 18.3 4.8 30 9.2 NW 20 28 11 15 1013.0 1012.9 0.0
13/11:00am 23.5 19.6 3.4 27 9.8 NNW 13 26 7 14 1012.0 1011.9 0.0
13/10:30am 23.0 19.9 3.5 28 9.5 NNW 9 17 5 9 1011.7 1011.6 0.0
13/10:00am 23.2 18.1 0.9 23 10.3 N 17 26 9 14 1011.5 1011.4 0.0
13/09:30am 22.9 19.5 1.9 25 9.9 NNE 9 15 5 8 1010.4 1010.3 0.0
13/09:00am 22.0 17.5 -0.1 23 9.9 NNE 13 20 7 11 1009.8 1009.7 0.0
13/08:30am 21.8 17.8 0.4 24 9.7 NE 11 20 6 11 1010.4 1010.3 0.0
13/08:00am 21.8 16.9 -0.8 22 10.0 NE 15 24 8 13 1010.2 1010.1 0.0
13/07:30am 21.5 16.8 -1.7 21 10.1 NE 13 20 7 11 1010.1 1010.0 0.0
13/07:00am 21.1 16.4 -2.0 21 9.9 NE 13 20 7 11 1010.0 1009.9 0.0
13/06:30am 21.8 16.7 -2.1 20 10.3 NE 15 22 8 12 1009.7 1009.6 0.0
13/06:00am 21.7 16.6 -2.2 20 10.3 NE 15 24 8 13 1009.7 1009.6 0.0
13/05:30am 21.5 16.8 -1.7 21 10.1 NE 13 20 7 11 1009.8 1009.7 0.0
13/05:00am 21.2 16.6 -1.3 22 9.8 NNE 13 20 7 11 1010.1 1010.0 0.0
13/04:30am 20.6 16.4 -0.7 24 9.3 NNE 11 20 6 11 1010.1 1010.0 0.0
13/04:00am 20.7 16.9 -1.1 23 9.5 NNE 9 17 5 9 - - 0.0
13/03:30am 20.7 16.1 -1.1 23 9.5 NE 13 24 7 13 1010.0 1009.9 0.0
13/03:00am 20.8 15.4 -1.1 23 9.5 NE 17 26 9 14 1010.6 1010.5 0.0
13/02:30am 20.7 16.2 -0.6 24 9.4 NE 13 28 7 15 1010.8 1010.7 0.0
13/02:00am 21.5 15.6 -1.1 22 9.9 NE 20 35 11 19 1010.8 1010.7 0.0
13/01:30am 21.9 16.1 -1.4 21 10.2 ENE 19 30 10 16 1011.1 1011.0 0.0
13/01:00am 21.7 16.4 -0.3 23 9.8 ENE 17 32 9 17 1011.3 1011.2 0.0
13/12:30am 21.6 16.4 0.2 24 9.6 ENE 17 26 9 14 1011.6 1011.5 0.0
13/12:00am 21.3 16.5 0.5 25 9.4 ENE 15 24 8 13 1012.0 1011.9 0.0
 
Date/Time
CDT
Temp
°C
App
Temp
°C
Dew
Point
°C
Rel
Hum
%
Delta-T
°C
Wind Press
QNH
hPa
Press
MSL
hPa
Rain since
9am
mm
Dir  Spd
km/h
Gust
km/h
Spd
kts
Gust
kts
12/11:30pm 21.3 17.0 1.0 26 9.3 ENE 13 19 7 10 1012.1 1012.0 0.0
12/11:00pm 20.2 16.8 2.1 30 8.4 NE 9 15 5 8 1012.4 1012.3 0.0
12/10:30pm 18.8 16.0 3.0 35 7.3 NE 7 9 4 5 1012.7 1012.6 0.0
12/10:00pm 17.7 15.9 3.6 39 6.6 NNE 2 7 1 4 1012.8 1012.7 0.0
12/09:30pm 18.9 17.4 3.1 35 7.4 CALM 0 0 0 0 1012.8 1012.7 0.0
12/09:00pm 20.1 16.9 2.9 32 8.1 ESE 9 15 5 8 1012.3 1012.2 0.0
12/08:30pm 21.1 17.6 1.4 27 9.0 ESE 9 15 5 8 1011.7 1011.6 0.0
12/08:00pm 22.4 18.8 0.9 24 9.9 E 9 17 5 9 1011.4 1011.3 0.0
12/07:30pm 22.8 18.8 0.6 23 10.2 E 11 15 6 8 1011.0 1010.9 0.0
12/07:00pm 23.3 19.6 2.2 25 10.0 ESE 11 19 6 10 1011.0 1010.9 0.0
12/06:30pm 24.0 20.4 2.8 25 10.2 ESE 11 17 6 9 1010.7 1010.6 0.0
12/06:00pm 24.6 21.9 3.8 26 10.3 ESE 7 11 4 6 1010.7 1010.6 0.0
12/05:30pm 24.4 20.3 2.5 24 10.5 E 13 17 7 9 1009.7 1009.6 0.0
12/05:00pm 24.7 20.3 2.8 24 10.6 E 15 22 8 12 1009.7 1009.6 0.0
12/04:30pm 23.8 21.1 3.7 27 9.8 NE 7 17 4 9 1010.0 1009.9 0.0
12/04:00pm 24.9 22.5 4.1 26 10.3 SE 6 9 3 5 1010.3 1010.2 0.0
12/03:30pm 24.7 21.5 2.8 24 10.6 E 9 15 5 8 1010.7 1010.6 0.0
12/03:00pm 25.0 22.5 4.7 27 10.2 NW 7 13 4 7 1010.9 1010.8 0.0
12/02:30pm 23.9 20.5 3.8 27 9.9 NNE 11 17 6 9 1011.4 1011.3 0.0
12/02:00pm 23.0 20.0 4.0 29 9.3 ENE 9 20 5 11 1011.9 1011.8 0.0
12/01:30pm 23.2 20.5 7.3 36 8.3 E 11 20 6 11 1012.2 1012.1 0.0
12/01:00pm 22.3 19.2 3.4 29 9.1 ESE 9 15 5 8 1012.8 1012.7 0.0
12/12:30pm 21.7 17.8 3.4 30 8.8 ENE 13 22 7 12 1013.1 1013.0 0.0
12/12:00pm 21.3 17.8 3.5 31 8.5 NNE 11 22 6 12 1013.7 1013.6 0.0
12/11:30am 20.7 17.0 4.3 34 7.9 NNE 13 19 7 10 1014.2 1014.1 0.0
12/11:00am 20.6 17.1 3.3 32 8.2 ENE 11 20 6 11 1014.8 1014.7 0.0
12/10:30am 19.8 16.5 4.3 36 7.4 ENE 11 17 6 9 1015.0 1014.9 0.0
12/10:00am 19.1 15.7 4.1 37 7.1 ENE 11 19 6 10 1015.3 1015.2 0.0
12/09:30am 18.4 14.8 4.9 41 6.5 ENE 13 19 7 10 1015.4 1015.3 0.0
12/09:00am 17.8 14.5 4.4 41 6.4 ESE 11 15 6 8 1015.4 1015.3 0.0
12/08:30am 16.3 14.7 4.4 45 5.6 ENE 2 7 1 4 1015.6 1015.5 0.0
12/08:00am 14.6 12.8 5.4 54 4.4 E 4 7 2 4 1015.3 1015.2 0.0
12/07:30am 13.4 11.6 5.3 58 3.8 E 4 9 2 5 1015.1 1015.0 0.0
12/07:00am 10.9 8.7 5.2 68 2.6 E 6 9 3 5 1014.9 1014.8 0.0
12/06:30am 10.5 9.4 5.3 70 2.4 CALM 0 6 0 3 1014.8 1014.7 0.0
12/06:00am 11.0 9.9 5.3 68 2.6 CALM 0 0 0 0 1014.6 1014.5 0.0
12/05:30am 12.2 10.3 5.1 62 3.3 ENE 4 9 2 5 1014.3 1014.2 0.0

Latest Capital City Observations: Canberra | Sydney | Melbourne | Brisbane | Adelaide | Perth | Hobart | Darwin

Other formats

Comma delimited format used in spreadsheet applications
http://www.bom.gov.au/fwo/IDS60901/IDS60901.94648.axf

JavaScript Object Notation format (JSON) in row-major order
http://www.bom.gov.au/fwo/IDS60901/IDS60901.94648.json

Data quality

Most of these data are generated automatically and are frequently updated. Quality checks on data are not normally performed. It is possible for incorrect values to appear. Refer to information at About Latest Weather Observations and please check the disclaimer before using these data.